Terminal Aerodrome Forecast
Issued by NWS Duluth, MN

Home | Current Version | Previous Version | Text Only | Print | Product List | Glossary On
Versions: 1 2 3 4 5 6 7 8 9 10 11 12 13 14 15 16 17 18 19 20 21 22 23
000
FTUS43 KDLH 191100
TAFDLH
TAF
KDLH 191125Z 1912/2012 18008KT P6SM BKN100
     FM191600 22010G17KT P6SM SCT100
     FM192300 27008KT P6SM SKC
     FM200300 32008KT P6SM FEW015=

USA.gov is the U.S. government's official web portal to all federal, state and local government web resources and services.